Terminal Aerodrome Forecast
Issued by NWS

Current Version | Previous Version | Text Only | Print | Product List | Glossary On
Versions: 1 2 3 4 5 6 7 8 9 10 11 12 13 14 15 16 17 18 19 20 21 22 23 24 25 26 27 28 29 30 31 32 33 34 35 36 37 38 39 40 41 42 43 44 45 46 47 48 49 50
000
FTUS45 KGJT 190538
TAFRIL
TAF
KRIL 190538Z 1906/2006 18004KT 4SM BR OVC008
      TEMPO 1906/1910 1SM BR OVC004
     FM191000 VRB04KT 3SM BR OVC010
     FM191200 VRB05KT 3SM BR OVC020
     FM191700 VRB03KT P6SM SCT030 BKN050
     FM192000 31008KT P6SM BKN070
     FM200200 11004KT P6SM BKN070=

USA.gov is the U.S. government's official web portal to all federal, state and local government web resources and services.